WARM SPRINGS (USACE) (WRS)

Elevation: 440' · RUSSIAN R basin · Operator: US Army Corps of Engineers

Provisional data, subject to change.
Query executed Sunday at 15:00:28   clock

Select a sensor type for a plot of data.
Note: Reservoir Flows are daily averages.

Earlier

Date RES ELE    STORAGE    RES CHG    TOC STO    ABV TOC    OUTFLOW    INFLOW    PPT INC    TEMP MN    TEMP MX    EVP PAN   
 FEET   AF   AF   AF   AF   CFS   CFS   INCHES   DEG F   DEG F   INCHES  
08/22/2014 412.67 157160 -260 245000 -87840 118 2 0.00 14 30 0.20
08/23/2014 412.54 156910 -250 245000 -88090 118 1 0.00 14 30 0.17
08/24/2014 412.41 156650 -260 245000 -88350 118 1 0.00 13 30 0.17
08/25/2014 412.27 156380 -270 245000 -88620 118 -13 0.00 13 27 0.12
08/26/2014 412.14 156130 -250 245000 -88870 118 1 0.00 14 32 0.17
08/27/2014 412.01 155870 -260 245000 -89130 118 1 0.00 10 34 0.17
08/28/2014 411.88 155620 -- 245000 -- 118 1 0.00 13 37 0.17
08/29/2014 411.76 155390 -230 245000 -89610 118 9 0.00 14 32 0.14
08/30/2014 411.63 155140 -250 245000 -89860 117 3 0.00 11 36 0.19
08/31/2014 411.50 154880 -260 245000 -90120 118 2 0.00 13 36 0.17
09/01/2014 411.36 154610 -270 245000 -90390 118 -7 0.00 12 39 0.17
09/02/2014 411.22 154340 -270 245000 -90660 116 -10 0.00 11 28 0.14
09/03/2014 411.09 154090 -250 245000 -90910 118 1 0.00 13 31 0.14
09/04/2014 410.95 153820 -270 245000 -91180 118 -9 0.00 13 31 0.14
09/05/2014 410.82 153570 -250 245000 -91430 118 0 0.00 13 30 0.13
09/06/2014 410.69 153320 -250 245000 -91680 118 -1 0.00 10 31 0.11
09/07/2014 410.55 153050 -270 245000 -91950 118 -8 0.00 10 30 0.14
09/08/2014 410.41 152780 -270 245000 -92220 123 -6 0.00 10 25 0.09
09/09/2014 410.26 152490 -290 245000 -92510 126 -10 0.00 10 32 0.13
09/10/2014 410.12 152220 -270 245000 -92780 126 1 0.00 8 38 0.15
09/11/2014 409.96 151920 -300 245000 -93080 126 -19 1.28 -18 38 0.13
09/12/2014 409.82 151650 -270 245000 -93350 126 1 0.00 8 39 0.14
09/13/2014 409.66 151340 -310 245000 -93660 126 -18 0.00 12 37 0.14
09/14/2014 409.51 151060 -280 245000 -93940 125 -10 0.00 12 31 0.13
09/15/2014 409.36 150770 -290 245000 -94230 125 -11 0.00 9 30 0.12
09/16/2014 409.21 150490 -280 245000 -94510 127 -8 0.00 9 33 0.13
09/17/2014 409.07 150220 -270 245000 -94780 127 2 0.00 16 29 0.12
09/18/2014 408.95 149990 -230 245000 -95010 122 14 0.15 15 25 0.09
09/19/2014 408.82 149750 -240 245000 -95250 118 2 0.02 13 30 0.12
09/20/2014 408.69 149500 -250 245000 -95500 -- -- -- -- -- --
09/21/2014 -- -- -- -- -- -- -- -- -- -- --

Later | Latest

Warning! This data is preliminary and subject to revision.

Download Data Now Download Data Now | Show WRS Map | Plot WRS Data | 1 Month WRS Data | Real-Time WRS Data | WRS Info